Time;durP1;ratioP1;P1;durP2;ratioP2;P2;SDS_P1;SDS_P2;PMS_P1;PMS_P2;Temp;Humidity;BMP_temperature;BMP_pressure;BME280_temperature;BME280_humidity;BME280_pressure;Samples;Min_cycle;Max_cycle;Signal;HPM_P1;HPM_P2
2021/07/17 00:00:52;;;;;;;4.35;1.92;;;;;;;31.26;33.80;93987.03;5055166;28;20045;-51
2021/07/17 00:03:20;;;;;;;2.67;2.20;;;;;;;31.17;34.08;93986.13;5054882;28;20051;-53
2021/07/17 00:05:47;;;;;;;2.63;2.00;;;;;;;31.60;33.38;93993.81;5055714;28;20056;-50
2021/07/17 00:08:14;;;;;;;3.55;2.15;;;;;;;30.99;34.15;93986.56;5056104;28;20463;-51
2021/07/17 00:10:48;;;;;;;3.22;2.30;;;;;;;31.48;33.21;93975.59;5066324;28;20052;-49
2021/07/17 00:13:18;;;;;;;3.17;2.17;;;;;;;31.80;32.98;93980.91;5055615;28;20041;-51
2021/07/17 00:15:45;;;;;;;2.53;2.20;;;;;;;31.36;33.31;93989.84;5055093;28;20045;-52
2021/07/17 00:18:15;;;;;;;4.38;2.22;;;;;;;31.55;33.04;93999.75;5055276;28;20051;-50
2021/07/17 00:20:47;;;;;;;4.95;2.08;;;;;;;30.79;34.37;93991.34;5056021;28;20048;-50
2021/07/17 00:23:14;;;;;;;3.10;2.17;;;;;;;31.57;33.16;93994.66;5053942;28;20055;-50
2021/07/17 00:25:43;;;;;;;4.60;2.47;;;;;;;31.55;33.15;93980.84;5054936;28;20067;-50
2021/07/17 00:28:10;;;;;;;2.75;2.20;;;;;;;31.15;33.66;93975.72;5058784;28;20051;-49
2021/07/17 00:30:37;;;;;;;3.50;2.00;;;;;;;31.13;33.71;93983.47;5076023;28;20048;-48
2021/07/17 00:33:05;;;;;;;3.00;2.25;;;;;;;31.50;33.12;93975.97;5056813;28;20057;-51
2021/07/17 00:35:32;;;;;;;5.53;2.30;;;;;;;30.59;34.68;93984.06;5055488;28;20048;-50
2021/07/17 00:37:59;;;;;;;3.80;2.42;;;;;;;31.11;33.53;93991.25;5055561;28;20436;-50
2021/07/17 00:40:26;;;;;;;3.78;2.00;;;;;;;31.28;33.15;93989.28;5055684;28;20056;-50
2021/07/17 00:42:53;;;;;;;3.08;2.05;;;;;;;31.15;33.45;93975.72;5054939;28;20044;-52
2021/07/17 00:45:21;;;;;;;2.78;1.90;;;;;;;30.88;34.04;93973.34;5055306;28;20056;-51
2021/07/17 00:47:50;;;;;;;3.08;2.10;;;;;;;30.78;34.32;93979.03;5054542;28;20045;-49
2021/07/17 00:50:19;;;;;;;3.72;2.63;;;;;;;31.08;33.68;93970.53;5055541;28;20056;-50
2021/07/17 00:52:46;;;;;;;3.22;2.50;;;;;;;31.06;33.69;93961.34;5055397;28;20435;-51
2021/07/17 00:55:14;;;;;;;2.72;2.33;;;;;;;30.81;34.27;93967.38;5054952;28;20044;-51
2021/07/17 00:57:43;;;;;;;3.55;2.33;;;;;;;31.13;33.63;93972.69;5055447;28;20041;-50
2021/07/17 01:00:12;;;;;;;3.78;2.17;;;;;;;31.14;33.88;93968.81;5073206;28;20052;-50
2021/07/17 01:02:45;;;;;;;2.78;2.22;;;;;;;31.59;32.72;93967.97;5061426;28;20044;-50
2021/07/17 01:05:12;;;;;;;3.75;2.40;;;;;;;31.21;33.56;93952.44;5067698;28;20044;-49
2021/07/17 01:07:46;;;;;;;3.28;2.33;;;;;;;31.14;33.67;93951.84;5053427;28;20447;-50
2021/07/17 01:10:15;;;;;;;3.38;2.20;;;;;;;30.88;34.23;93948.31;5053983;28;20044;-50
2021/07/17 01:12:42;;;;;;;5.80;2.22;;;;;;;31.73;32.63;93947.91;5054286;28;20059;-50
2021/07/17 01:15:10;;;;;;;2.50;2.30;;;;;;;31.03;34.04;93952.16;5054161;28;20048;-49
2021/07/17 01:17:37;;;;;;;2.17;1.98;;;;;;;31.20;33.73;93950.91;5047081;28;20052;-50
2021/07/17 01:20:09;;;;;;;2.90;2.20;;;;;;;31.44;33.25;93958.75;5054785;28;20056;-49
2021/07/17 01:22:37;;;;;;;2.63;2.20;;;;;;;30.89;34.42;93953.28;5054865;28;20044;-50
2021/07/17 01:25:28;;;;;;;2.90;2.25;;;;;;;30.57;34.64;93948.69;5054298;28;20440;-50
2021/07/17 01:27:58;;;;;;;2.70;2.28;;;;;;;31.52;33.10;93928.44;5055271;28;20052;-50
2021/07/17 01:30:28;;;;;;;3.30;2.40;;;;;;;31.18;33.94;93939.78;5073394;28;20056;-51
2021/07/17 01:33:06;;;;;;;2.90;2.22;;;;;;;31.13;33.72;93934.91;5073172;28;20070;-51
2021/07/17 01:35:33;;;;;;;2.70;2.10;;;;;;;31.22;33.48;93934.28;5054040;28;20049;-50
2021/07/17 01:38:00;;;;;;;2.85;2.25;;;;;;;31.26;33.45;93938.44;5054157;28;20394;-49
2021/07/17 01:40:27;;;;;;;5.85;2.38;;;;;;;30.90;34.20;93933.19;5053888;28;20045;-53
2021/07/17 01:42:57;;;;;;;3.03;2.20;;;;;;;31.21;33.46;93933.53;5053650;28;20045;-51
2021/07/17 01:45:30;;;;;;;3.38;2.60;;;;;;;31.24;33.79;93919.22;5053651;28;20052;-50
2021/07/17 01:47:57;;;;;;;2.95;2.40;;;;;;;31.41;33.49;93911.00;5054033;28;20056;-50
2021/07/17 01:50:29;;;;;;;4.53;2.30;;;;;;;31.01;33.83;93915.97;5054478;28;20443;-52
2021/07/17 01:52:56;;;;;;;3.35;2.33;;;;;;;31.35;33.57;93924.28;5053138;28;20052;-50
2021/07/17 01:55:24;;;;;;;4.78;2.45;;;;;;;31.26;33.28;93926.88;5053149;28;20049;-50
2021/07/17 01:57:51;;;;;;;4.63;2.50;;;;;;;31.09;33.66;93923.44;5053159;28;20056;-49
2021/07/17 02:00:19;;;;;;;2.83;2.42;;;;;;;30.92;34.17;93919.28;5073250;28;20049;-50
2021/07/17 02:02:47;;;;;;;4.93;2.30;;;;;;;31.34;33.34;93913.91;5074383;28;20482;-53
2021/07/17 02:05:15;;;;;;;6.45;2.53;;;;;;;30.71;34.68;93919.84;5055426;28;20060;-49
2021/07/17 02:07:43;;;;;;;4.15;2.90;;;;;;;30.84;34.27;93910.63;5053855;28;20052;-48
2021/07/17 02:10:16;;;;;;;4.07;2.53;;;;;;;31.39;33.35;93913.38;5054093;28;20399;-49
2021/07/17 02:13:09;;;;;;;5.70;2.65;;;;;;;31.49;33.25;93912.31;5054387;28;20459;-51
2021/07/17 02:15:41;;;;;;;4.22;2.70;;;;;;;31.15;33.95;93905.53;5053544;28;20049;-50
2021/07/17 02:18:08;;;;;;;4.63;2.70;;;;;;;31.12;34.15;93906.38;5052942;28;20059;-50
2021/07/17 02:20:35;;;;;;;3.92;2.60;;;;;;;30.98;34.11;93901.41;5053147;28;20041;-49
2021/07/17 02:23:03;;;;;;;4.38;3.03;;;;;;;31.17;33.77;93913.22;5054099;28;20052;-51
2021/07/17 02:25:31;;;;;;;4.13;2.50;;;;;;;31.52;33.54;93900.66;5053139;28;20056;-49
2021/07/17 02:27:58;;;;;;;4.47;2.90;;;;;;;31.58;33.48;93904.34;5056045;28;20368;-51
2021/07/17 02:30:26;;;;;;;4.00;2.85;;;;;;;31.06;34.35;93900.00;5077685;28;20052;-50
2021/07/17 02:32:53;;;;;;;2.90;2.60;;;;;;;31.42;33.63;93899.00;5078177;28;20040;-51
2021/07/17 02:35:20;;;;;;;5.90;3.10;;;;;;;31.05;34.20;93889.66;5059718;28;20056;-50
2021/07/17 02:37:47;;;;;;;4.53;2.90;;;;;;;31.29;33.73;93891.66;5057691;28;20486;-51
2021/07/17 02:40:14;;;;;;;4.32;3.28;;;;;;;30.85;34.91;93895.19;5057087;28;20082;-51
2021/07/17 02:42:42;;;;;;;5.07;3.30;;;;;;;30.72;35.06;93891.72;5056859;28;20052;-56
2021/07/17 02:45:11;;;;;;;3.70;2.85;;;;;;;31.18;34.23;93901.25;5056386;28;20048;-50
2021/07/17 02:47:38;;;;;;;5.25;3.40;;;;;;;30.83;34.76;93900.25;5057474;28;20045;-51
2021/07/17 02:50:06;;;;;;;4.72;3.30;;;;;;;31.43;34.03;93892.44;5056925;28;20063;-51
2021/07/17 02:52:33;;;;;;;6.05;3.28;;;;;;;31.33;33.84;93901.59;5056740;28;20443;-55
2021/07/17 02:55:01;;;;;;;3.67;3.35;;;;;;;31.21;34.13;93890.34;5057279;28;20053;-50
2021/07/17 02:57:28;;;;;;;4.78;3.00;;;;;;;31.42;34.12;93885.50;5057309;28;20059;-51
2021/07/17 02:59:55;;;;;;;4.93;3.17;;;;;;;31.12;34.45;93890.19;5075209;28;20087;-52
2021/07/17 03:02:22;;;;;;;4.22;3.00;;;;;;;31.10;34.60;93894.50;5077499;28;20045;-49
2021/07/17 03:04:49;;;;;;;4.07;3.15;;;;;;;30.90;34.67;93894.66;5064475;28;20362;-51
2021/07/17 03:07:17;;;;;;;3.70;3.30;;;;;;;31.09;34.55;93890.31;5055946;28;20044;-51
2021/07/17 03:09:44;;;;;;;5.63;3.17;;;;;;;31.26;34.14;93881.72;5057318;28;20049;-52
2021/07/17 03:12:11;;;;;;;8.23;3.15;;;;;;;31.18;34.31;93896.59;5055861;28;20049;-49
2021/07/17 03:14:38;;;;;;;4.72;2.67;;;;;;;31.09;34.50;93893.75;5055822;28;20040;-50
2021/07/17 03:17:05;;;;;;;6.25;2.97;;;;;;;31.10;34.42;93892.56;5057048;28;20562;-49
2021/07/17 03:19:32;;;;;;;2.80;2.60;;;;;;;30.81;34.90;93892.59;5057206;28;20052;-51
2021/07/17 03:21:59;;;;;;;3.30;3.00;;;;;;;31.11;34.39;93894.09;5055966;28;20053;-51
2021/07/17 03:24:27;;;;;;;4.72;3.20;;;;;;;31.11;34.19;93899.47;5055352;28;20045;-54
2021/07/17 03:26:54;;;;;;;6.45;3.17;;;;;;;30.88;35.03;93902.44;5056693;28;20045;-50
2021/07/17 03:29:21;;;;;;;3.60;3.20;;;;;;;31.03;34.90;93903.56;5068719;28;20060;-50
2021/07/17 03:31:48;;;;;;;4.00;3.17;;;;;;;30.94;34.86;93893.38;5076825;28;20358;-49
2021/07/17 03:34:15;;;;;;;3.47;2.80;;;;;;;30.56;35.42;93906.72;5061124;28;20045;-51
2021/07/17 03:36:42;;;;;;;4.07;3.35;;;;;;;31.03;34.67;93902.81;5056796;28;20044;-52
2021/07/17 03:39:10;;;;;;;3.97;3.30;;;;;;;30.57;35.30;93905.53;5055716;28;20056;-50
2021/07/17 03:41:37;;;;;;;6.47;3.20;;;;;;;30.45;35.55;93900.84;5048960;28;20045;-50
2021/07/17 03:44:06;;;;;;;4.93;3.40;;;;;;;30.78;35.01;93900.78;5056288;28;20045;-51
2021/07/17 03:46:34;;;;;;;5.85;3.22;;;;;;;30.40;35.58;93898.63;5055410;28;20052;-51
2021/07/17 03:49:01;;;;;;;4.45;3.28;;;;;;;30.93;34.67;93899.22;5055637;28;20052;-50
2021/07/17 03:51:28;;;;;;;4.53;3.35;;;;;;;30.98;34.78;93901.41;5056563;28;20055;-50
2021/07/17 03:53:55;;;;;;;5.18;4.10;;;;;;;30.47;35.68;93903.88;5055895;28;20351;-52
2021/07/17 03:56:22;;;;;;;4.50;3.75;;;;;;;30.65;35.33;93900.72;5056505;28;20052;-49
2021/07/17 03:58:49;;;;;;;5.97;4.70;;;;;;;30.17;36.22;93899.59;5058851;28;20049;-49
2021/07/17 04:01:17;;;;;;;7.85;6.07;;;;;;;30.03;36.46;93900.69;5036781;28;20068;-50
2021/07/17 04:03:47;;;;;;;8.20;6.63;;;;;;;31.00;34.62;93899.03;5049973;28;20044;-50
2021/07/17 04:06:14;;;;;;;6.20;5.55;;;;;;;30.60;35.66;93899.31;5056356;28;20048;-50
2021/07/17 04:08:41;;;;;;;5.55;4.90;;;;;;;30.64;35.62;93897.28;5055921;28;20052;-50
2021/07/17 04:11:08;;;;;;;6.68;5.13;;;;;;;30.33;36.08;93896.13;5055172;28;20049;-52
2021/07/17 04:13:35;;;;;;;5.72;5.00;;;;;;;30.03;36.82;93889.94;5055748;28;20049;-49
2021/07/17 04:16:02;;;;;;;6.18;4.90;;;;;;;29.95;36.77;93899.34;5037447;28;20048;-50
2021/07/17 04:18:29;;;;;;;5.18;4.30;;;;;;;30.27;36.24;93895.88;5055867;28;20052;-50
2021/07/17 04:20:56;;;;;;;6.22;4.22;;;;;;;30.89;35.19;93898.56;5056070;28;20367;-50
2021/07/17 04:23:23;;;;;;;5.43;4.22;;;;;;;30.74;35.62;93897.44;5055582;28;20053;-50
2021/07/17 04:25:50;;;;;;;4.40;4.00;;;;;;;30.29;36.47;93900.84;5055087;28;20056;-50
2021/07/17 04:28:17;;;;;;;5.40;4.32;;;;;;;29.89;37.20;93892.91;5053503;28;20383;-50
2021/07/17 04:30:44;;;;;;;4.68;4.13;;;;;;;30.20;36.91;93903.41;5055136;28;20057;-51
2021/07/17 04:33:11;;;;;;;5.18;4.03;;;;;;;29.90;37.24;93913.28;5055353;28;20049;-52
2021/07/17 04:35:41;;;;;;;5.93;3.72;;;;;;;30.21;36.78;93905.69;5055751;28;20044;-50
2021/07/17 04:38:09;;;;;;;6.25;4.15;;;;;;;29.82;37.65;93906.56;5054558;28;20053;-51
2021/07/17 04:40:36;;;;;;;6.00;3.90;;;;;;;30.16;36.66;93908.09;5054749;28;20459;-51
2021/07/17 04:43:03;;;;;;;6.45;3.70;;;;;;;30.32;36.68;93900.00;5054408;28;20451;-51
2021/07/17 04:45:30;;;;;;;4.68;3.88;;;;;;;30.01;37.54;93908.44;5055528;28;20049;-53
2021/07/17 04:47:57;;;;;;;4.93;4.05;;;;;;;30.08;37.30;93905.59;5054440;28;20470;-51
2021/07/17 04:50:24;;;;;;;6.10;3.67;;;;;;;30.38;36.56;93909.84;5054936;28;20053;-52
2021/07/17 04:52:51;;;;;;;5.13;3.90;;;;;;;30.61;36.42;93900.06;5054648;28;20057;-51
2021/07/17 04:55:18;;;;;;;6.55;4.47;;;;;;;30.26;36.72;93899.00;5054706;28;20041;-52
2021/07/17 04:57:45;;;;;;;6.88;4.28;;;;;;;29.88;38.02;93907.56;5055005;28;20371;-49
2021/07/17 05:00:13;;;;;;;4.22;3.80;;;;;;;30.10;37.50;93899.00;5075434;28;20044;-51
2021/07/17 05:02:51;;;;;;;5.40;3.95;;;;;;;30.41;36.94;93889.38;5071534;28;20041;-50
2021/07/17 05:05:19;;;;;;;4.88;4.35;;;;;;;30.69;36.36;93896.00;5045077;28;20179;-51
2021/07/17 05:07:47;;;;;;;5.85;4.40;;;;;;;30.61;36.45;93890.03;5054083;28;20049;-49
2021/07/17 05:10:16;;;;;;;6.18;4.45;;;;;;;30.41;37.13;93886.69;5054982;28;20135;-51
2021/07/17 05:12:44;;;;;;;6.55;4.60;;;;;;;30.12;37.47;93883.94;5054990;28;20055;-50
2021/07/17 05:15:13;;;;;;;6.28;4.72;;;;;;;30.31;37.22;93872.28;5054163;28;20045;-51
2021/07/17 05:17:40;;;;;;;5.60;4.18;;;;;;;30.45;37.58;93879.28;5064895;28;20052;-50
2021/07/17 05:20:09;;;;;;;8.65;5.47;;;;;;;30.75;36.99;93882.75;5054763;28;20439;-52
2021/07/17 05:22:36;;;;;;;5.97;4.75;;;;;;;31.22;35.93;93878.34;5047877;28;20049;-50
2021/07/17 05:25:04;;;;;;;7.30;5.00;;;;;;;30.96;36.06;93874.81;5053292;28;20455;-51
2021/07/17 05:27:31;;;;;;;5.78;4.93;;;;;;;30.91;36.17;93882.69;5054770;28;20087;-51
2021/07/17 05:29:59;;;;;;;6.00;5.40;;;;;;;30.90;36.38;93879.22;5070629;28;20040;-52
2021/07/17 05:32:26;;;;;;;8.05;5.35;;;;;;;31.20;35.67;93878.03;5073075;28;20044;-53
2021/07/17 05:34:53;;;;;;;7.47;4.88;;;;;;;31.17;35.82;93870.78;5053957;28;20344;-50
2021/07/17 05:37:22;;;;;;;7.72;5.78;;;;;;;31.25;35.78;93877.53;5053673;28;20052;-50
2021/07/17 05:39:49;;;;;;;8.38;6.18;;;;;;;31.06;36.01;93858.78;5046590;28;20045;-49
2021/07/17 05:42:16;;;;;;;8.93;5.53;;;;;;;31.26;35.71;93868.22;5034424;28;20052;-52
2021/07/17 05:44:43;;;;;;;5.88;5.28;;;;;;;31.48;35.04;93862.19;5052460;28;20045;-52
2021/07/17 05:47:11;;;;;;;5.95;5.10;;;;;;;31.88;34.31;93870.63;5054314;28;20056;-50
2021/07/17 05:49:38;;;;;;;6.00;5.20;;;;;;;31.90;34.09;93882.53;5054313;28;20060;-51
2021/07/17 05:52:05;;;;;;;7.60;5.32;;;;;;;31.71;34.72;93870.00;5047950;28;20048;-52
2021/07/17 05:54:32;;;;;;;6.53;4.97;;;;;;;31.74;33.99;93869.13;5051454;28;20398;-52
2021/07/17 05:56:59;;;;;;;7.95;4.60;;;;;;;31.84;33.93;93861.88;5054165;28;20049;-52
2021/07/17 05:59:27;;;;;;;7.70;4.50;;;;;;;32.17;33.88;93856.97;5067122;28;20455;-50
2021/07/17 06:01:54;;;;;;;5.25;3.47;;;;;;;32.45;30.38;93855.28;5056598;28;20049;-51
2021/07/17 06:04:21;;;;;;;6.50;3.70;;;;;;;32.84;29.81;93864.03;5040666;28;20044;-53
2021/07/17 06:06:48;;;;;;;5.45;3.50;;;;;;;32.79;29.12;93851.78;5053289;28;20045;-51
2021/07/17 06:09:15;;;;;;;4.93;3.65;;;;;;;32.63;28.02;93851.97;5054259;28;20557;-52
2021/07/17 06:11:42;;;;;;;8.23;3.80;;;;;;;32.62;28.05;93850.47;5054227;28;20079;-51
2021/07/17 06:14:09;;;;;;;6.68;3.90;;;;;;;32.79;27.25;93851.78;5053773;28;20064;-53
2021/07/17 06:16:36;;;;;;;6.90;3.72;;;;;;;32.94;28.11;93850.09;5053963;28;20045;-51
2021/07/17 06:19:03;;;;;;;5.63;3.60;;;;;;;32.80;26.83;93842.50;5050553;28;20053;-51
2021/07/17 06:21:30;;;;;;;8.20;3.85;;;;;;;32.94;26.17;93852.06;5033349;28;20049;-51
2021/07/17 06:23:57;;;;;;;5.43;3.35;;;;;;;32.73;26.49;93842.72;5044200;28;20364;-52
2021/07/17 06:26:25;;;;;;;5.68;2.88;;;;;;;33.24;25.42;93837.03;5053231;28;20053;-51
2021/07/17 06:28:53;;;;;;;3.97;3.30;;;;;;;33.43;25.45;93835.94;5061725;28;20044;-53
2021/07/17 06:31:20;;;;;;;6.70;3.00;;;;;;;33.27;25.80;93825.31;5056668;28;20056;-52
2021/07/17 06:33:47;;;;;;;7.55;3.70;;;;;;;33.48;25.55;93824.53;5062994;28;20055;-53
2021/07/17 06:36:15;;;;;;;8.18;3.70;;;;;;;33.53;25.47;93826.63;5054146;28;20486;-51
2021/07/17 06:38:43;;;;;;;5.00;3.03;;;;;;;33.94;25.18;93838.25;5048820;28;20329;-51
2021/07/17 06:41:10;;;;;;;6.20;3.05;;;;;;;33.90;25.02;93832.22;5033079;28;20474;-52
2021/07/17 06:43:37;;;;;;;8.20;3.25;;;;;;;34.01;24.80;93821.69;5041271;28;20379;-51
2021/07/17 06:46:05;;;;;;;3.97;3.10;;;;;;;34.40;24.54;93824.78;5053757;28;20037;-52
2021/07/17 06:48:32;;;;;;;5.07;2.85;;;;;;;34.59;23.82;93827.00;5040640;28;20372;-53
2021/07/17 06:50:59;;;;;;;4.70;3.05;;;;;;;34.45;23.84;93816.03;5034136;28;20467;-52
2021/07/17 06:53:26;;;;;;;4.45;2.80;;;;;;;34.84;23.40;93815.09;5039034;28;20055;-51
2021/07/17 06:55:53;;;;;;;5.10;2.80;;;;;;;34.46;23.29;93809.38;5052940;28;20052;-50
2021/07/17 06:58:20;;;;;;;5.40;3.35;;;;;;;34.25;23.13;93808.31;5057596;28;20402;-52
2021/07/17 07:00:47;;;;;;;6.13;3.13;;;;;;;33.92;23.19;93808.88;5073461;28;20048;-51
2021/07/17 07:03:14;;;;;;;5.78;2.75;;;;;;;34.10;23.08;93808.16;5069392;28;20045;-53
2021/07/17 07:05:41;;;;;;;4.65;2.75;;;;;;;33.65;23.19;93801.41;5053920;28;20386;-52
2021/07/17 07:08:09;;;;;;;6.13;2.75;;;;;;;34.16;22.72;93811.00;5053779;28;20052;-54
2021/07/17 07:10:36;;;;;;;7.00;2.50;;;;;;;34.08;22.49;93812.50;5053199;28;20044;-52
2021/07/17 07:13:14;;;;;;;6.20;2.92;;;;;;;34.53;21.92;93817.22;5052672;28;20049;-52
2021/07/17 07:15:41;;;;;;;5.68;2.70;;;;;;;34.15;22.67;93804.84;5056318;28;20048;-50
2021/07/17 07:18:10;;;;;;;3.92;2.80;;;;;;;34.23;22.22;93805.28;5055995;28;20048;-51
2021/07/17 07:20:38;;;;;;;6.28;2.72;;;;;;;34.50;21.96;93812.69;5056529;28;20060;-52
2021/07/17 07:23:05;;;;;;;6.05;2.83;;;;;;;34.58;22.07;93808.47;5055962;28;20053;-53
2021/07/17 07:25:32;;;;;;;4.70;2.72;;;;;;;34.82;22.44;93817.47;5056196;28;20045;-52
2021/07/17 07:27:59;;;;;;;5.20;3.13;;;;;;;35.32;21.81;93796.25;5056881;28;20045;-51
2021/07/17 07:30:26;;;;;;;7.28;2.80;;;;;;;35.07;21.95;93812.94;5076023;28;20049;-52
2021/07/17 07:32:54;;;;;;;5.93;2.58;;;;;;;35.14;21.81;93820.78;5076010;28;20051;-53
2021/07/17 07:35:23;;;;;;;4.38;2.92;;;;;;;35.02;21.65;93819.75;5056898;28;20037;-55
2021/07/17 07:37:50;;;;;;;4.63;2.63;;;;;;;35.27;21.47;93818.63;5056465;28;20045;-53
2021/07/17 07:40:18;;;;;;;8.13;2.92;;;;;;;35.75;21.34;93821.47;5056844;28;20363;-51
2021/07/17 07:42:45;;;;;;;3.22;2.40;;;;;;;35.07;21.61;93823.81;5037030;28;20764;-51
2021/07/17 07:45:13;;;;;;;7.03;2.83;;;;;;;35.51;21.60;93829.56;5056079;28;20060;-54
2021/07/17 07:47:40;;;;;;;5.70;2.90;;;;;;;35.46;21.79;93841.81;5056080;28;20052;-54
2021/07/17 07:50:08;;;;;;;6.18;2.75;;;;;;;35.82;21.14;93829.28;5055540;28;20052;-52
2021/07/17 07:52:36;;;;;;;5.85;2.33;;;;;;;35.68;21.49;93828.00;5056461;28;20044;-52
2021/07/17 07:55:05;;;;;;;5.15;2.30;;;;;;;35.72;21.43;93842.16;5055217;28;20048;-51
2021/07/17 07:57:32;;;;;;;9.15;2.80;;;;;;;35.62;21.16;93826.34;5054838;28;20045;-51
2021/07/17 08:00:00;;;;;;;6.25;2.60;;;;;;;35.53;21.00;93825.19;5054325;28;20052;-52
2021/07/17 08:02:27;;;;;;;5.90;2.50;;;;;;;35.65;20.91;93822.72;5055922;28;20049;-51
2021/07/17 08:04:54;;;;;;;5.35;2.63;;;;;;;36.07;20.83;93831.56;5055959;28;20363;-52
2021/07/17 08:07:21;;;;;;;5.88;2.70;;;;;;;36.05;21.15;93823.13;5055118;28;20051;-52
2021/07/17 08:09:48;;;;;;;6.10;2.40;;;;;;;36.31;20.46;93814.50;5047171;28;20384;-51
2021/07/17 08:12:15;;;;;;;4.45;3.05;;;;;;;36.36;20.58;93819.31;5036336;28;20488;-55
2021/07/17 08:14:42;;;;;;;4.75;2.50;;;;;;;36.68;20.38;93823.88;5049758;28;20068;-52
2021/07/17 08:17:11;;;;;;;4.18;2.65;;;;;;;36.59;20.60;93807.63;5055152;28;20079;-54
2021/07/17 08:19:38;;;;;;;3.85;2.65;;;;;;;36.61;20.48;93821.53;5056116;28;20044;-55
2021/07/17 08:22:05;;;;;;;5.63;2.63;;;;;;;36.35;20.26;93823.25;5054872;28;20057;-53
2021/07/17 08:24:32;;;;;;;6.70;2.53;;;;;;;36.30;19.97;93808.31;5054686;28;20045;-52
2021/07/17 08:26:59;;;;;;;9.35;2.78;;;;;;;36.57;20.23;93803.88;5054607;28;20051;-52
2021/07/17 08:29:26;;;;;;;6.18;2.50;;;;;;;36.50;20.09;93794.09;5068477;28;20044;-54
2021/07/17 08:31:53;;;;;;;5.57;2.60;;;;;;;36.22;20.29;93795.53;5074641;28;20051;-52
2021/07/17 08:34:20;;;;;;;5.18;2.60;;;;;;;36.41;20.35;93802.34;5073941;28;20056;-52
2021/07/17 08:36:47;;;;;;;6.50;2.50;;;;;;;36.92;19.65;93790.41;5053386;28;20037;-54
2021/07/17 08:39:14;;;;;;;5.90;2.90;;;;;;;36.66;20.20;93790.16;5054687;28;20052;-52
2021/07/17 08:41:48;;;;;;;7.15;2.28;;;;;;;36.60;19.78;93790.06;5042218;28;20634;-52
2021/07/17 08:44:17;;;;;;;7.32;2.58;;;;;;;37.27;19.42;93782.34;5035425;28;20041;-51
2021/07/17 08:46:45;;;;;;;5.90;2.45;;;;;;;36.78;19.44;93777.53;5054281;28;20049;-55
2021/07/17 08:49:13;;;;;;;5.00;2.42;;;;;;;36.65;19.37;93781.25;5055661;28;20320;-55
2021/07/17 08:51:40;;;;;;;5.28;2.60;;;;;;;36.60;19.37;93787.34;5055101;28;20045;-54
2021/07/17 08:54:08;;;;;;;4.82;2.30;;;;;;;36.75;19.32;93771.78;5037684;28;20052;-56
2021/07/17 08:56:35;;;;;;;6.25;2.90;;;;;;;36.71;18.98;93782.13;5037300;28;20041;-53
2021/07/17 08:59:02;;;;;;;5.60;2.42;;;;;;;36.35;19.25;93763.38;5052241;28;20041;-54
2021/07/17 09:01:29;;;;;;;4.32;2.20;;;;;;;36.82;18.73;93776.13;5055545;28;20382;-54
2021/07/17 09:03:56;;;;;;;9.52;2.40;;;;;;;36.61;18.65;93777.22;5037459;28;20051;-58
2021/07/17 09:06:23;;;;;;;5.10;2.25;;;;;;;36.62;19.11;93776.75;5033458;28;20045;-53
2021/07/17 09:08:51;;;;;;;5.30;2.50;;;;;;;37.03;18.30;93780.47;5054318;28;20049;-51
2021/07/17 09:11:19;;;;;;;5.43;2.30;;;;;;;37.05;18.30;93767.13;5054334;28;20529;-54
2021/07/17 09:13:46;;;;;;;5.97;2.55;;;;;;;37.13;18.66;93767.47;5037022;28;20048;-53
2021/07/17 09:16:13;;;;;;;6.70;2.75;;;;;;;36.87;18.04;93775.47;5053747;28;20431;-54
2021/07/17 09:18:53;;;;;;;11.40;2.30;;;;;;;36.79;17.92;93776.31;5036905;28;20057;-52
2021/07/17 09:21:38;;;;;;;4.88;2.65;;;;;;;36.78;18.41;93767.41;5054947;28;20410;-54
2021/07/17 09:24:14;;;;;;;7.88;2.63;;;;;;;36.82;18.12;93769.94;5054199;28;20056;-52
2021/07/17 09:26:53;;;;;;;7.47;2.35;;;;;;;36.72;17.95;93775.47;5051247;28;20360;-54
2021/07/17 09:29:21;;;;;;;8.13;2.30;;;;;;;36.72;18.26;93783.63;5062394;28;20044;-52
2021/07/17 09:32:02;;;;;;;7.53;2.30;;;;;;;36.92;18.11;93763.16;5071653;28;20391;-56
2021/07/17 09:34:31;;;;;;;5.20;2.22;;;;;;;37.01;18.03;93765.81;5071995;28;20052;-54
2021/07/17 09:37:03;;;;;;;8.45;2.70;;;;;;;37.33;16.84;93758.66;5071592;28;20040;-54
2021/07/17 09:39:36;;;;;;;6.30;2.40;;;;;;;37.41;17.28;93753.53;5071765;28;20056;-54
2021/07/17 09:42:08;;;;;;;5.07;2.40;;;;;;;37.23;17.20;93782.50;5071392;28;20055;-53
2021/07/17 09:44:36;;;;;;;6.57;2.10;;;;;;;37.30;16.96;93748.69;5070928;28;20049;-53
2021/07/17 09:47:18;;;;;;;4.78;2.00;;;;;;;36.85;17.43;93750.69;5071595;28;20363;-53
2021/07/17 09:49:46;;;;;;;10.23;2.13;;;;;;;37.43;17.20;93757.28;5070366;28;20045;-54
2021/07/17 09:52:20;;;;;;;5.25;2.13;;;;;;;36.95;17.62;93751.31;5070437;28;20754;-53
2021/07/17 09:55:06;;;;;;;7.40;2.20;;;;;;;36.94;17.21;93744.38;5070744;28;20079;-52
2021/07/17 09:57:34;;;;;;;10.13;2.35;;;;;;;37.27;17.26;93739.50;5071660;28;20064;-57
2021/07/17 10:00:13;;;;;;;4.93;2.15;;;;;;;37.04;16.93;93757.44;5070537;28;20063;-52
2021/07/17 10:02:40;;;;;;;6.18;2.10;;;;;;;37.23;16.80;93752.53;5071126;28;20045;-57
2021/07/17 10:05:09;;;;;;;5.32;1.92;;;;;;;37.09;17.16;93745.13;5070959;28;20051;-54
2021/07/17 10:07:37;;;;;;;4.45;2.30;;;;;;;37.48;17.03;93747.72;5071135;28;20363;-54
2021/07/17 10:10:05;;;;;;;10.82;2.30;;;;;;;37.08;17.03;93746.34;5071545;28;20048;-55
2021/07/17 10:12:36;;;;;;;9.60;1.85;;;;;;;37.17;17.16;93750.94;5070675;28;20451;-53
2021/07/17 10:15:14;;;;;;;4.25;2.10;;;;;;;37.35;16.80;93759.66;5070737;28;20795;-60
2021/07/17 10:17:45;;;;;;;5.25;2.10;;;;;;;37.40;16.39;93752.03;5071319;28;20067;-53
2021/07/17 10:20:17;;;;;;;5.10;2.10;;;;;;;37.30;17.08;93745.97;5052186;28;20045;-55
2021/07/17 10:22:45;;;;;;;4.88;2.50;;;;;;;37.10;17.39;93743.16;5052662;28;20079;-57
2021/07/17 10:25:13;;;;;;;4.07;2.13;;;;;;;37.31;17.04;93745.50;5069473;28;20367;-54
2021/07/17 10:27:41;;;;;;;3.88;1.90;;;;;;;37.38;16.93;93743.59;5070722;28;20040;-53
2021/07/17 10:30:10;;;;;;;4.05;2.05;;;;;;;37.54;16.32;93749.28;5069735;28;20053;-57
2021/07/17 10:32:37;;;;;;;5.72;2.28;;;;;;;37.44;16.73;93758.03;5070145;28;20052;-54
2021/07/17 10:35:05;;;;;;;4.97;2.00;;;;;;;37.38;16.74;93741.63;5070557;28;20071;-53
2021/07/17 10:37:35;;;;;;;9.90;2.00;;;;;;;37.30;16.59;93735.06;5070437;28;20459;-51
2021/07/17 10:40:10;;;;;;;6.40;2.28;;;;;;;37.69;16.67;93726.66;5069338;28;20059;-50
2021/07/17 10:42:43;;;;;;;12.77;8.30;;;;;;;37.33;16.62;93715.78;5061502;28;20056;-52
2021/07/17 10:45:10;;;;;;;4.97;2.78;;;;;;;37.48;16.27;93715.00;5056117;28;20052;-55
2021/07/17 10:47:42;;;;;;;8.70;2.90;;;;;;;37.50;16.47;93720.72;5055979;28;20049;-54
2021/07/17 10:50:14;;;;;;;4.97;2.90;;;;;;;37.44;16.50;93719.88;5056931;28;20049;-55
2021/07/17 10:52:43;;;;;;;6.80;4.88;;;;;;;37.70;16.91;93717.25;5056663;28;20052;-56
2021/07/17 10:55:29;;;;;;;5.38;2.88;;;;;;;37.55;16.18;93720.81;5056988;28;20056;-56
2021/07/17 10:58:18;;;;;;;6.45;3.15;;;;;;;37.75;16.08;93720.09;5056522;28;20051;-53
2021/07/17 11:00:54;;;;;;;10.55;2.67;;;;;;;37.36;16.34;93692.28;5056798;28;20052;-56
2021/07/17 11:03:29;;;;;;;7.70;2.53;;;;;;;37.69;16.14;93707.56;5056446;28;20048;-55
2021/07/17 11:05:57;;;;;;;5.65;2.30;;;;;;;37.78;16.14;93716.41;5056962;28;20045;-55
2021/07/17 11:08:32;;;;;;;5.25;2.00;;;;;;;37.80;16.49;93708.50;5055735;28;20049;-60
2021/07/17 11:11:00;;;;;;;5.82;2.42;;;;;;;37.51;16.03;93705.88;5056086;28;20079;-55
2021/07/17 11:13:35;;;;;;;10.13;2.30;;;;;;;37.18;16.06;93698.69;5056117;28;20668;-55
2021/07/17 11:16:05;;;;;;;5.50;2.33;;;;;;;37.40;16.56;93690.09;5056167;28;20096;-55
2021/07/17 11:18:34;;;;;;;5.53;2.38;;;;;;;37.67;15.80;93699.88;5056849;28;20055;-55
2021/07/17 11:21:03;;;;;;;3.25;2.15;;;;;;;37.46;15.92;93701.09;5056519;28;20044;-54
2021/07/17 11:23:36;;;;;;;3.88;2.17;;;;;;;37.56;16.13;93683.38;5056095;28;20059;-60
2021/07/17 11:26:07;;;;;;;2.20;2.00;;;;;;;37.33;16.10;93688.53;5055947;28;20455;-54
2021/07/17 11:31:50;;;;;;;;;;;;;;;37.89;15.50;93686.53;5043800;28;20053;-53
2021/07/17 11:34:17;;;;;;;6.47;2.60;;;;;;;38.17;15.60;93677.94;5056156;28;19913;-56
2021/07/17 11:36:46;;;;;;;4.03;2.17;;;;;;;37.40;15.74;93686.63;5056024;28;20048;-54
2021/07/17 11:39:16;;;;;;;4.38;2.00;;;;;;;37.63;16.17;93666.63;5056145;28;20052;-54
2021/07/17 11:41:43;;;;;;;2.60;1.90;;;;;;;37.77;16.12;93668.56;5056037;28;20056;-53
2021/07/17 11:44:10;;;;;;;6.47;2.00;;;;;;;37.96;16.28;93677.94;5055593;28;20052;-54